createdAt,value
2018-11-14T00:00:48.872Z,38.85
2018-11-14T00:01:48.900Z,38.95
2018-11-14T00:03:41.848Z,38.95
2018-11-14T00:04:41.882Z,39.04
2018-11-14T00:06:34.842Z,39.04
2018-11-14T00:07:34.865Z,39.14
2018-11-14T00:09:27.845Z,39.04
2018-11-14T00:10:27.847Z,38.95
2018-11-14T00:12:20.808Z,39.14
2018-11-14T00:13:20.841Z,39.22
2018-11-14T00:15:13.785Z,38.85
2018-11-14T00:16:13.817Z,38.83
2018-11-14T00:18:06.779Z,38.85
2018-11-14T00:19:06.803Z,39.04
2018-11-14T00:20:59.761Z,38.85
2018-11-14T00:21:59.786Z,38.95
2018-11-14T00:23:52.734Z,39.14
2018-11-14T00:24:53.198Z,38.74
2018-11-14T00:26:45.763Z,38.93
2018-11-14T00:27:45.812Z,38.85
2018-11-14T00:29:38.716Z,38.83
2018-11-14T00:30:38.743Z,38.76
2018-11-14T00:32:31.703Z,38.95
2018-11-14T00:33:31.725Z,38.85
2018-11-14T00:35:24.681Z,39.04
2018-11-14T00:36:24.713Z,38.83
2018-11-14T00:38:17.678Z,39.12
2018-11-14T00:39:17.699Z,39.12
2018-11-14T00:41:10.669Z,39.41
2018-11-14T00:42:10.687Z,39.22
2018-11-14T00:44:03.638Z,39.32
2018-11-14T00:45:03.672Z,39.22
2018-11-14T00:46:56.629Z,39.41
2018-11-14T00:47:56.655Z,39.41
2018-11-14T00:49:49.610Z,39.32
2018-11-14T00:50:49.645Z,39.32
2018-11-14T00:52:42.602Z,39.22
2018-11-14T00:53:42.625Z,39.32
2018-11-14T00:55:35.576Z,39.12
2018-11-14T00:56:35.609Z,39.41
2018-11-14T00:58:36.105Z,39.22
2018-11-14T00:59:28.594Z,39.41
2018-11-14T01:01:21.624Z,39.22
2018-11-14T01:02:21.580Z,39.22
2018-11-14T01:04:14.533Z,39.41
2018-11-14T01:05:14.566Z,39.41
2018-11-14T01:07:07.522Z,39.32
2018-11-14T01:08:07.551Z,39.32
2018-11-14T01:10:00.500Z,39.41
2018-11-14T01:11:00.535Z,39.41
2018-11-14T01:12:53.507Z,39.41
2018-11-14T01:13:53.520Z,39.41
2018-11-14T01:15:46.469Z,39.51
2018-11-14T01:16:46.505Z,39.51
2018-11-14T01:18:40.475Z,39.12
2018-11-14T01:19:40.500Z,39.32
2018-11-14T01:21:33.516Z,39.32
2018-11-14T01:22:33.484Z,39.03
2018-11-14T01:24:26.444Z,39.61
2018-11-14T01:25:26.474Z,39.51
2018-11-14T01:27:19.432Z,39.51
2018-11-14T01:28:19.457Z,39.51
2018-11-14T01:30:12.416Z,39.32
2018-11-14T01:31:12.445Z,39.41
2018-11-14T01:33:05.407Z,39.32
2018-11-14T01:34:05.440Z,39.41
2018-11-14T01:35:58.795Z,39.51
2018-11-14T01:36:58.425Z,39.61
2018-11-14T01:38:51.387Z,39.41
2018-11-14T01:39:51.413Z,39.32
2018-11-14T01:41:44.371Z,39.32
2018-11-14T01:42:44.396Z,39.22
2018-11-14T01:44:37.348Z,39.51
2018-11-14T01:45:37.383Z,39.41
2018-11-14T01:47:30.348Z,39.51
2018-11-14T01:48:30.366Z,39.41
2018-11-14T01:50:23.328Z,39.41
2018-11-14T01:51:23.356Z,39.22
2018-11-14T01:53:16.323Z,39.41
2018-11-14T01:54:16.345Z,39.41
2018-11-14T01:56:09.304Z,39.61
2018-11-14T01:57:09.334Z,39.41
2018-11-14T01:59:02.292Z,39.41
2018-11-14T02:00:02.316Z,39.41
2018-11-14T02:01:55.277Z,39.22
2018-11-14T02:02:55.303Z,39.32
2018-11-14T02:04:48.303Z,39.61
2018-11-14T02:05:48.296Z,39.51
2018-11-14T02:07:41.260Z,39.59
2018-11-14T02:08:41.282Z,39.59
2018-11-14T02:10:34.232Z,39.70
2018-11-14T02:11:34.266Z,39.61
2018-11-14T02:13:27.231Z,39.69
2018-11-14T02:14:27.256Z,39.59
2018-11-14T02:16:20.214Z,39.59
2018-11-14T02:17:20.236Z,39.69
2018-11-14T02:19:13.198Z,39.59
2018-11-14T02:20:13.223Z,39.59
2018-11-14T02:22:06.176Z,39.59
2018-11-14T02:23:06.209Z,39.69
2018-11-14T02:24:59.169Z,39.78
2018-11-14T02:25:59.194Z,39.78
2018-11-14T02:27:52.169Z,39.69
2018-11-14T02:28:52.182Z,39.78
2018-11-14T02:30:45.138Z,39.80
2018-11-14T02:31:45.166Z,39.69
2018-11-14T02:33:38.127Z,39.80
2018-11-14T02:34:38.151Z,39.78
2018-11-14T02:36:31.111Z,39.78
2018-11-14T02:37:31.177Z,39.59
2018-11-14T02:39:24.099Z,39.69
2018-11-14T02:40:24.123Z,39.87
2018-11-14T02:42:17.072Z,39.69
2018-11-14T02:43:17.107Z,39.69
2018-11-14T02:45:10.067Z,39.61
2018-11-14T02:46:10.096Z,39.87
2018-11-14T02:48:03.050Z,39.69
2018-11-14T02:49:03.078Z,39.78
2018-11-14T02:50:56.035Z,39.69
2018-11-14T02:51:56.060Z,39.87
2018-11-14T02:53:49.019Z,39.78
2018-11-14T02:54:49.046Z,39.87
2018-11-14T02:56:42.000Z,39.87
2018-11-14T02:57:42.024Z,40.07
2018-11-14T02:59:34.985Z,39.59
2018-11-14T03:00:35.007Z,39.69
2018-11-14T03:02:27.959Z,39.59
2018-11-14T03:03:27.991Z,39.97
2018-11-14T03:05:20.948Z,39.69
2018-11-14T03:06:20.976Z,39.69
2018-11-14T03:08:13.926Z,39.78
2018-11-14T03:09:13.959Z,39.69
2018-11-14T03:11:06.919Z,39.69
2018-11-14T03:12:06.966Z,39.49
2018-11-14T03:13:59.903Z,39.78
2018-11-14T03:14:59.930Z,39.87
2018-11-14T03:16:52.878Z,39.59
2018-11-14T03:17:52.913Z,39.97
2018-11-14T03:19:45.874Z,39.69
2018-11-14T03:20:45.897Z,39.49
2018-11-14T03:22:38.855Z,39.78
2018-11-14T03:23:38.888Z,39.78
2018-11-14T03:25:31.846Z,39.78
2018-11-14T03:26:31.870Z,39.78
2018-11-14T03:28:24.818Z,39.49
2018-11-14T03:29:24.854Z,39.69
2018-11-14T03:31:17.816Z,39.97
2018-11-14T03:32:17.836Z,39.49
2018-11-14T03:34:10.794Z,39.59
2018-11-14T03:35:10.820Z,39.97
2018-11-14T03:37:03.774Z,39.97
2018-11-14T03:38:03.804Z,40.07
2018-11-14T03:39:56.770Z,40.07
2018-11-14T03:40:56.783Z,39.69
2018-11-14T03:42:49.740Z,39.78
2018-11-14T03:43:49.772Z,40.07
2018-11-14T03:45:42.730Z,39.78
2018-11-14T03:46:42.752Z,39.97
2018-11-14T03:48:35.711Z,39.87
2018-11-14T03:49:35.741Z,39.97
2018-11-14T03:51:28.699Z,39.69
2018-11-14T03:52:28.723Z,39.69
2018-11-14T03:54:21.690Z,39.78
2018-11-14T03:55:21.708Z,39.78
2018-11-14T03:57:14.659Z,39.87
2018-11-14T03:58:14.744Z,39.97
2018-11-14T04:00:07.655Z,39.97
2018-11-14T04:01:07.673Z,39.87
2018-11-14T04:03:00.677Z,39.97
2018-11-14T04:04:00.654Z,40.07
2018-11-14T04:05:53.616Z,39.59
2018-11-14T04:06:53.652Z,39.49
2018-11-14T04:08:46.595Z,39.59
2018-11-14T04:09:46.629Z,39.49
2018-11-14T04:11:39.588Z,40.07
2018-11-14T04:12:39.612Z,39.69
2018-11-14T04:14:32.572Z,39.97
2018-11-14T04:15:32.597Z,39.59
2018-11-14T04:17:25.557Z,39.59
2018-11-14T04:18:25.582Z,39.87
2018-11-14T04:20:18.545Z,39.78
2018-11-14T04:21:18.567Z,39.78
2018-11-14T04:23:11.520Z,39.78
2018-11-14T04:24:11.552Z,39.78
2018-11-14T04:26:04.515Z,40.07
2018-11-14T04:27:04.539Z,39.97
2018-11-14T04:28:57.491Z,39.97
2018-11-14T04:29:57.524Z,40.07
2018-11-14T04:31:50.492Z,39.78
2018-11-14T04:32:50.513Z,39.78
2018-11-14T04:34:43.471Z,39.87
2018-11-14T04:35:43.499Z,39.87
2018-11-14T04:37:36.447Z,39.78
2018-11-14T04:38:36.479Z,39.87
2018-11-14T04:40:29.439Z,39.87
2018-11-14T04:41:29.463Z,39.78
2018-11-14T04:43:22.423Z,39.78
2018-11-14T04:44:22.457Z,39.87
2018-11-14T04:46:15.414Z,39.78
2018-11-14T04:47:15.437Z,39.78
2018-11-14T04:49:08.402Z,39.78
2018-11-14T04:50:08.428Z,39.87
2018-11-14T04:52:01.384Z,39.69
2018-11-14T04:53:01.409Z,39.69
2018-11-14T04:54:54.368Z,39.87
2018-11-14T04:55:54.398Z,39.69
2018-11-14T04:57:47.344Z,39.87
2018-11-14T04:58:47.376Z,39.86
2018-11-14T05:00:40.334Z,40.07
2018-11-14T05:01:40.359Z,40.05
2018-11-14T05:03:33.310Z,39.87
2018-11-14T05:04:33.341Z,40.07
2018-11-14T05:06:26.304Z,39.87
2018-11-14T05:07:26.325Z,39.97
2018-11-14T05:09:19.279Z,39.69
2018-11-14T05:10:19.312Z,39.78
2018-11-14T05:12:12.276Z,39.59
2018-11-14T05:13:12.300Z,39.29
2018-11-14T05:15:05.250Z,39.29
2018-11-14T05:16:05.287Z,39.32
2018-11-14T05:17:58.252Z,39.01
2018-11-14T05:18:58.268Z,38.83
2018-11-14T05:20:51.228Z,38.93
2018-11-14T05:21:51.251Z,38.83
2018-11-14T05:23:44.202Z,38.74
2018-11-14T05:24:44.314Z,38.54
2018-11-14T05:26:37.199Z,38.64
2018-11-14T05:27:37.219Z,38.45
2018-11-14T05:29:30.176Z,38.35
2018-11-14T05:30:30.210Z,38.35
2018-11-14T05:32:23.168Z,38.25
2018-11-14T05:33:23.194Z,38.16
2018-11-14T05:35:16.159Z,38.08
2018-11-14T05:36:16.183Z,37.98
2018-11-14T05:38:09.141Z,37.98
2018-11-14T05:39:09.166Z,37.98
2018-11-14T05:41:02.125Z,37.88
2018-11-14T05:42:02.149Z,37.79
2018-11-14T05:43:55.100Z,37.70
2018-11-14T05:44:55.134Z,37.79
2018-11-14T05:46:48.093Z,37.79
2018-11-14T05:47:48.128Z,37.79
2018-11-14T05:49:41.080Z,37.79
2018-11-14T05:50:41.099Z,37.79
2018-11-14T05:52:34.069Z,37.88
2018-11-14T05:53:34.089Z,37.79
2018-11-14T05:55:27.041Z,37.88
2018-11-14T05:56:27.076Z,37.88
2018-11-14T05:58:20.034Z,37.98
2018-11-14T05:59:20.061Z,37.88
2018-11-14T06:01:13.019Z,37.98
2018-11-14T06:02:13.046Z,38.00
2018-11-14T06:04:05.994Z,37.98
2018-11-14T06:05:06.024Z,37.79
2018-11-14T06:06:59.001Z,37.79
2018-11-14T06:07:59.011Z,37.79
2018-11-14T06:09:51.966Z,37.88
2018-11-14T06:10:51.997Z,37.70
2018-11-14T06:12:44.966Z,37.79
2018-11-14T06:13:44.983Z,37.70
2018-11-14T06:15:37.945Z,37.70
2018-11-14T06:16:37.974Z,37.79
2018-11-14T06:18:30.936Z,37.79
2018-11-14T06:19:30.956Z,37.88
2018-11-14T06:21:23.915Z,37.79
2018-11-14T06:22:23.942Z,37.79
2018-11-14T06:24:16.893Z,37.79
2018-11-14T06:25:16.930Z,37.88
2018-11-14T06:27:09.893Z,37.62
2018-11-14T06:28:09.963Z,37.52
2018-11-14T06:30:02.861Z,37.42
2018-11-14T06:31:02.896Z,37.23
2018-11-14T06:32:55.885Z,37.13
2018-11-14T06:33:55.881Z,37.04
2018-11-14T06:35:48.861Z,37.23
2018-11-14T06:36:48.895Z,37.23
2018-11-14T06:38:41.854Z,35.76
2018-11-14T06:39:41.879Z,35.74
2018-11-14T06:41:34.886Z,36.53
2018-11-14T06:42:34.862Z,36.24
2018-11-14T06:44:27.857Z,36.63
2018-11-14T06:45:27.845Z,36.63
2018-11-14T06:47:20.813Z,36.36
2018-11-14T06:48:20.834Z,36.65
2018-11-14T06:50:13.782Z,36.55
2018-11-14T06:51:13.813Z,36.94
2018-11-14T06:53:06.776Z,36.55
2018-11-14T06:54:06.800Z,36.74
2018-11-14T06:55:59.755Z,36.65
2018-11-14T06:56:59.792Z,36.36
2018-11-14T06:58:52.835Z,36.55
2018-11-14T06:59:52.836Z,36.65
2018-11-14T07:01:45.721Z,36.46
2018-11-14T07:02:45.752Z,36.26
2018-11-14T07:04:38.716Z,36.66
2018-11-14T07:05:38.783Z,36.55
2018-11-14T07:07:31.719Z,36.46
2018-11-14T07:08:31.730Z,36.65
2018-11-14T07:10:24.680Z,36.65
2018-11-14T07:11:24.735Z,36.57
2018-11-14T07:13:17.683Z,36.66
2018-11-14T07:14:17.696Z,36.57
2018-11-14T07:16:10.649Z,36.65
2018-11-14T07:17:10.684Z,36.57
2018-11-14T07:19:03.643Z,36.46
2018-11-14T07:20:03.664Z,36.47
2018-11-14T07:21:56.615Z,36.76
2018-11-14T07:22:56.649Z,36.86
2018-11-14T07:24:49.609Z,36.84
2018-11-14T07:25:49.638Z,36.96
2018-11-14T07:27:42.623Z,36.94
2018-11-14T07:28:42.623Z,36.96
2018-11-14T07:30:35.574Z,36.84
2018-11-14T07:31:35.610Z,36.96
2018-11-14T07:33:28.564Z,37.04
2018-11-14T07:34:28.591Z,37.05
2018-11-14T07:36:21.544Z,37.05
2018-11-14T07:37:21.576Z,36.96
2018-11-14T07:39:14.536Z,37.05
2018-11-14T07:40:14.562Z,37.05
2018-11-14T07:42:07.512Z,36.96
2018-11-14T07:43:07.548Z,36.96
2018-11-14T07:45:00.507Z,36.86
2018-11-14T07:46:00.528Z,36.96
2018-11-14T07:47:53.509Z,37.05
2018-11-14T07:48:53.529Z,37.15
2018-11-14T07:50:46.469Z,37.05
2018-11-14T07:51:46.503Z,37.05
2018-11-14T07:53:39.463Z,36.96
2018-11-14T07:54:39.497Z,36.86
2018-11-14T07:56:32.437Z,37.05
2018-11-14T07:57:32.470Z,36.86
2018-11-14T07:59:25.428Z,36.86
2018-11-14T08:00:25.456Z,37.05
2018-11-14T08:02:18.439Z,37.05
2018-11-14T08:03:18.440Z,37.05
2018-11-14T08:05:11.401Z,37.05
2018-11-14T08:06:11.427Z,36.86
2018-11-14T08:08:04.391Z,37.15
2018-11-14T08:09:04.413Z,36.86
2018-11-14T08:10:57.368Z,37.15
2018-11-14T08:11:57.394Z,36.96
2018-11-14T08:13:50.362Z,36.86
2018-11-14T08:14:50.386Z,36.86
2018-11-14T08:16:43.354Z,37.15
2018-11-14T08:17:43.376Z,37.05
2018-11-14T08:19:36.338Z,37.05
2018-11-14T08:20:36.360Z,36.96
2018-11-14T08:22:29.315Z,37.15
2018-11-14T08:23:29.393Z,36.96
2018-11-14T08:25:22.312Z,36.96
2018-11-14T08:26:22.338Z,37.05
2018-11-14T08:28:15.285Z,36.96
2018-11-14T08:29:15.324Z,36.86
2018-11-14T08:31:08.280Z,36.96
2018-11-14T08:32:08.304Z,36.96
2018-11-14T08:34:01.260Z,36.86
2018-11-14T08:35:01.289Z,36.86
2018-11-14T08:36:54.236Z,37.05
2018-11-14T08:37:54.271Z,36.96
2018-11-14T08:39:47.233Z,36.96
2018-11-14T08:40:47.258Z,36.96
2018-11-14T08:42:40.216Z,37.15
2018-11-14T08:43:40.250Z,37.24
2018-11-14T08:45:33.211Z,37.15
2018-11-14T08:46:33.231Z,37.24
2018-11-14T08:48:26.184Z,37.24
2018-11-14T08:49:26.218Z,37.24
2018-11-14T08:51:19.177Z,37.15
2018-11-14T08:52:19.206Z,37.24
2018-11-14T08:54:12.163Z,37.24
2018-11-14T08:55:12.186Z,37.34
2018-11-14T08:57:05.135Z,37.15
2018-11-14T08:58:05.211Z,37.44
2018-11-14T08:59:58.132Z,37.44
2018-11-14T09:00:58.157Z,37.24
2018-11-14T09:02:51.112Z,37.34
2018-11-14T09:03:51.162Z,37.24
2018-11-14T09:05:45.105Z,37.24
2018-11-14T09:06:45.128Z,37.24
2018-11-14T09:08:38.085Z,37.24
2018-11-14T09:09:38.121Z,37.44
2018-11-14T09:11:31.079Z,37.24
2018-11-14T09:12:31.186Z,37.54
2018-11-14T09:14:24.158Z,37.44
2018-11-14T09:15:24.094Z,37.34
2018-11-14T09:17:17.046Z,37.24
2018-11-14T09:18:17.102Z,37.34
2018-11-14T09:20:10.043Z,37.24
2018-11-14T09:21:10.064Z,37.34
2018-11-14T09:23:03.026Z,37.44
2018-11-14T09:24:03.057Z,37.44
2018-11-14T09:25:56.018Z,37.54
2018-11-14T09:26:56.045Z,37.15
2018-11-14T09:28:48.994Z,37.15
2018-11-14T09:29:49.033Z,37.05
2018-11-14T09:31:41.990Z,37.15
2018-11-14T09:32:42.019Z,37.15
2018-11-14T09:34:35.017Z,37.34
2018-11-14T09:35:35.002Z,37.15
2018-11-14T09:37:27.966Z,37.24
2018-11-14T09:38:27.996Z,37.24
2018-11-14T09:40:20.957Z,37.24
2018-11-14T09:41:21.000Z,37.24
2018-11-14T09:43:13.937Z,37.05
2018-11-14T09:44:13.971Z,37.05
2018-11-14T09:46:06.926Z,37.15
2018-11-14T09:47:06.954Z,37.15
2018-11-14T09:48:59.908Z,37.24
2018-11-14T09:49:59.940Z,37.34
2018-11-14T09:51:52.899Z,37.24
2018-11-14T09:52:52.929Z,37.15
2018-11-14T09:54:45.890Z,37.24
2018-11-14T09:55:45.914Z,37.15
2018-11-14T09:57:38.877Z,37.24
2018-11-14T09:58:38.956Z,37.15
2018-11-14T10:00:31.895Z,37.24
2018-11-14T10:01:31.888Z,37.24
2018-11-14T10:03:24.848Z,37.15
2018-11-14T10:04:24.870Z,37.15
2018-11-14T10:06:17.827Z,37.34
2018-11-14T10:07:17.852Z,37.24
2018-11-14T10:09:10.811Z,37.15
2018-11-14T10:10:10.842Z,37.24
2018-11-14T10:12:03.800Z,37.15
2018-11-14T10:13:03.825Z,37.15
2018-11-14T10:14:56.787Z,37.24
2018-11-14T10:15:56.811Z,37.15
2018-11-14T10:17:49.771Z,37.15
2018-11-14T10:18:49.796Z,37.24
2018-11-14T10:20:42.756Z,37.24
2018-11-14T10:21:42.903Z,37.15
2018-11-14T10:23:35.728Z,37.44
2018-11-14T10:24:35.764Z,37.15
2018-11-14T10:26:28.724Z,37.24
2018-11-14T10:27:28.748Z,37.15
2018-11-14T10:29:21.700Z,37.24
2018-11-14T10:30:21.843Z,37.15
2018-11-14T10:32:14.694Z,37.15
2018-11-14T10:33:14.720Z,37.15
2018-11-14T10:35:07.672Z,37.05
2018-11-14T10:36:07.706Z,37.34
2018-11-14T10:38:00.666Z,37.34
2018-11-14T10:39:00.689Z,37.44
2018-11-14T10:40:53.671Z,37.44
2018-11-14T10:41:53.682Z,37.44
2018-11-14T10:43:46.638Z,37.44
2018-11-14T10:44:46.668Z,37.44
2018-11-14T10:46:39.629Z,37.44
2018-11-14T10:47:39.654Z,37.44
2018-11-14T10:49:32.603Z,37.54
2018-11-14T10:50:32.637Z,37.34
2018-11-14T10:52:25.598Z,37.44
2018-11-14T10:53:25.620Z,37.44
2018-11-14T10:55:18.575Z,37.44
2018-11-14T10:56:18.610Z,37.44
2018-11-14T10:58:11.608Z,37.34
2018-11-14T10:59:11.596Z,37.44
2018-11-14T11:01:04.546Z,37.34
2018-11-14T11:02:04.581Z,37.44
2018-11-14T11:03:57.538Z,37.44
2018-11-14T11:04:57.571Z,37.54
2018-11-14T11:06:50.526Z,37.54
2018-11-14T11:07:50.596Z,37.44
2018-11-14T11:09:43.509Z,37.63
2018-11-14T11:10:43.534Z,37.63
2018-11-14T11:12:36.495Z,37.63
2018-11-14T11:13:36.568Z,37.54
2018-11-14T11:15:29.472Z,37.34
2018-11-14T11:16:29.509Z,37.44
2018-11-14T11:18:22.468Z,37.54
2018-11-14T11:19:22.496Z,37.54
2018-11-14T11:21:15.441Z,37.82
2018-11-14T11:22:15.473Z,37.44
2018-11-14T11:24:08.445Z,37.52
2018-11-14T11:25:08.467Z,37.54
2018-11-14T11:27:01.425Z,37.82
2018-11-14T11:28:01.457Z,37.54
2018-11-14T11:29:54.412Z,37.42
2018-11-14T11:30:54.440Z,37.73
2018-11-14T11:32:47.399Z,37.54
2018-11-14T11:33:47.423Z,37.63
2018-11-14T11:35:40.372Z,37.73
2018-11-14T11:36:40.407Z,37.54
2018-11-14T11:38:33.366Z,37.44
2018-11-14T11:39:33.391Z,37.44
2018-11-14T11:41:26.340Z,37.44
2018-11-14T11:42:26.373Z,37.54
2018-11-14T11:44:19.367Z,38.12
2018-11-14T11:45:19.359Z,37.54
2018-11-14T11:47:12.312Z,37.63
2018-11-14T11:48:12.344Z,38.02
2018-11-14T11:50:05.304Z,37.92
2018-11-14T11:51:05.444Z,38.02
2018-11-14T11:52:58.293Z,38.02
2018-11-14T11:53:58.319Z,38.12
2018-11-14T11:55:51.275Z,38.02
2018-11-14T11:56:51.304Z,38.00
2018-11-14T11:58:44.264Z,37.81
2018-11-14T11:59:44.393Z,37.81
2018-11-14T12:01:37.239Z,37.71
2018-11-14T12:02:37.301Z,37.81
2018-11-14T12:04:41.315Z,37.62
2018-11-14T12:05:41.381Z,37.92
2018-11-14T12:07:34.290Z,37.81
2018-11-14T12:08:34.327Z,37.90
2018-11-14T12:10:27.332Z,37.73
2018-11-14T12:11:27.309Z,37.90
2018-11-14T12:13:20.281Z,37.81
2018-11-14T12:14:20.298Z,37.81
2018-11-14T12:16:13.252Z,37.92
2018-11-14T12:17:13.281Z,37.92
2018-11-14T12:19:06.351Z,37.90
2018-11-14T12:20:06.272Z,37.81
2018-11-14T12:21:59.223Z,37.81
2018-11-14T12:22:59.258Z,37.71
2018-11-14T12:24:52.223Z,37.92
2018-11-14T12:25:52.246Z,37.82
2018-11-14T12:27:45.291Z,37.82
2018-11-14T12:28:45.231Z,37.90
2018-11-14T12:30:38.294Z,38.00
2018-11-14T12:31:38.216Z,37.81
2018-11-14T12:33:31.177Z,37.81
2018-11-14T12:34:31.243Z,37.90
2018-11-14T12:36:24.152Z,37.81
2018-11-14T12:37:24.189Z,37.81
2018-11-14T12:39:17.147Z,37.92
2018-11-14T12:40:17.172Z,37.81
2018-11-14T12:42:10.122Z,38.00
2018-11-14T12:43:10.154Z,37.81
2018-11-14T12:45:03.179Z,37.71
2018-11-14T12:46:03.142Z,37.92
2018-11-14T12:47:56.090Z,37.71
2018-11-14T12:48:56.126Z,37.82
2018-11-14T12:50:49.085Z,37.90
2018-11-14T12:51:49.111Z,37.81
2018-11-14T12:53:42.063Z,37.90
2018-11-14T12:54:42.097Z,37.90
2018-11-14T12:56:35.056Z,37.90
2018-11-14T12:57:35.080Z,37.81
2018-11-14T12:59:28.053Z,38.00
2018-11-14T13:00:28.064Z,38.00
2018-11-14T13:02:21.016Z,38.20
2018-11-14T13:03:21.051Z,38.00
2018-11-14T13:05:14.010Z,38.00
2018-11-14T13:06:14.037Z,38.00
2018-11-14T13:08:06.988Z,38.10
2018-11-14T13:09:07.020Z,38.10
2018-11-14T13:11:00.493Z,38.20
2018-11-14T13:12:00.508Z,38.10
2018-11-14T13:13:53.459Z,38.00
2018-11-14T13:14:53.493Z,38.10
2018-11-14T13:16:46.452Z,38.10
2018-11-14T13:17:46.479Z,38.00
2018-11-14T13:19:39.438Z,38.68
2018-11-14T13:20:39.464Z,38.00
2018-11-14T13:22:32.415Z,38.20
2018-11-14T13:23:32.450Z,38.10
2018-11-14T13:25:25.409Z,38.10
2018-11-14T13:26:25.435Z,38.20
2018-11-14T13:28:18.388Z,38.29
2018-11-14T13:29:18.419Z,38.29
2018-11-14T13:31:11.379Z,38.20
2018-11-14T13:32:11.407Z,38.20
2018-11-14T13:34:04.399Z,38.20
2018-11-14T13:35:04.454Z,38.20
2018-11-14T13:36:57.354Z,38.20
2018-11-14T13:37:57.378Z,38.20
2018-11-14T13:39:50.338Z,38.29
2018-11-14T13:40:50.361Z,38.29
2018-11-14T13:42:43.322Z,38.39
2018-11-14T13:43:43.358Z,38.29
2018-11-14T13:45:36.306Z,38.18
2018-11-14T13:46:36.335Z,38.37
2018-11-14T13:48:29.283Z,38.28
2018-11-14T13:49:29.449Z,38.28
2018-11-14T13:51:22.361Z,38.29
2018-11-14T13:52:22.306Z,38.28
2018-11-14T13:54:15.869Z,38.18
2018-11-14T13:55:15.287Z,38.37
2018-11-14T13:57:08.248Z,38.28
2018-11-14T13:58:08.300Z,38.37
2018-11-14T14:00:01.229Z,38.46
2018-11-14T14:01:01.272Z,38.37
2018-11-14T14:02:54.207Z,38.56
2018-11-14T14:03:54.237Z,38.46
2018-11-14T14:05:47.204Z,38.56
2018-11-14T14:06:47.222Z,38.66
2018-11-14T14:08:40.191Z,38.56
2018-11-14T14:09:40.209Z,38.46
2018-11-14T14:11:33.168Z,38.46
2018-11-14T14:12:33.192Z,38.37
2018-11-14T14:14:26.142Z,38.56
2018-11-14T14:15:26.178Z,38.46
2018-11-14T14:17:19.134Z,38.56
2018-11-14T14:18:19.164Z,38.46
2018-11-14T14:20:12.118Z,38.66
2018-11-14T14:21:12.143Z,38.76
2018-11-14T14:23:05.093Z,38.85
2018-11-14T14:24:05.127Z,37.87
2018-11-14T14:25:58.088Z,37.77
2018-11-14T14:26:58.112Z,37.77
2018-11-14T14:28:51.065Z,38.16
2018-11-14T14:29:51.100Z,38.25
2018-11-14T14:31:44.550Z,37.10
2018-11-14T14:32:44.573Z,37.19
2018-11-14T14:34:37.526Z,38.06
2018-11-14T14:35:37.560Z,37.87
2018-11-14T14:37:30.518Z,37.96
2018-11-14T14:38:30.543Z,38.06
2018-11-14T14:40:24.030Z,38.25
2018-11-14T14:41:24.029Z,38.06
2018-11-14T14:43:17.071Z,37.88
2018-11-14T14:44:17.012Z,37.88
2018-11-14T14:46:09.981Z,37.96
2018-11-14T14:47:10.004Z,38.37
2018-11-14T14:49:02.954Z,37.98
2018-11-14T14:50:02.990Z,37.38
2018-11-14T14:51:55.948Z,37.77
2018-11-14T14:52:55.979Z,37.77
2018-11-14T14:54:48.926Z,37.77
2018-11-14T14:55:48.958Z,37.67
2018-11-14T14:57:41.920Z,37.98
2018-11-14T14:58:41.947Z,37.88
2018-11-14T15:00:34.905Z,37.98
2018-11-14T15:01:34.928Z,37.70
2018-11-14T15:03:27.889Z,37.88
2018-11-14T15:04:27.912Z,37.88
2018-11-14T15:06:20.869Z,37.81
2018-11-14T15:07:20.895Z,37.81
2018-11-14T15:09:13.853Z,37.90
2018-11-14T15:10:13.878Z,37.90
2018-11-14T15:12:06.839Z,37.90
2018-11-14T15:13:06.861Z,38.20
2018-11-14T15:14:59.816Z,37.71
2018-11-14T15:15:59.848Z,37.90
2018-11-14T15:17:52.806Z,37.81
2018-11-14T15:18:52.836Z,37.90
2018-11-14T15:20:45.791Z,37.81
2018-11-14T15:21:45.816Z,37.81
2018-11-14T15:23:38.800Z,37.81
2018-11-14T15:24:38.831Z,38.02
2018-11-14T15:26:31.790Z,38.12
2018-11-14T15:27:31.815Z,37.44
2018-11-14T15:29:24.771Z,37.73
2018-11-14T15:30:24.814Z,37.52
2018-11-14T15:32:17.771Z,37.54
2018-11-14T15:33:17.794Z,37.34
2018-11-14T15:35:10.762Z,37.42
2018-11-14T15:36:10.859Z,37.42
2018-11-14T15:38:03.735Z,37.54
2018-11-14T15:39:03.762Z,37.15
2018-11-14T15:40:56.729Z,37.15
2018-11-14T15:41:56.747Z,37.13
2018-11-14T15:43:49.700Z,37.15
2018-11-14T15:44:49.746Z,37.15
2018-11-14T15:46:42.704Z,37.24
2018-11-14T15:47:42.727Z,37.15
2018-11-14T15:49:35.680Z,37.24
2018-11-14T15:50:35.709Z,37.15
2018-11-14T15:52:29.208Z,37.05
2018-11-14T15:53:29.187Z,36.96
2018-11-14T15:55:22.133Z,37.24
2018-11-14T15:56:22.169Z,36.96
2018-11-14T15:58:15.131Z,37.05
2018-11-14T15:59:15.154Z,37.05
2018-11-14T16:01:08.109Z,36.86
2018-11-14T16:02:08.142Z,36.86
2018-11-14T16:04:01.111Z,36.96
2018-11-14T16:05:01.129Z,36.96
2018-11-14T16:06:54.111Z,36.96
2018-11-14T16:07:54.122Z,36.76
2018-11-14T16:09:47.069Z,36.86
2018-11-14T16:10:47.101Z,36.96
2018-11-14T16:12:40.059Z,36.96
2018-11-14T16:13:40.086Z,36.86
2018-11-14T16:15:33.210Z,36.96
2018-11-14T16:16:33.236Z,36.86
2018-11-14T16:18:26.224Z,36.96
2018-11-14T16:19:26.235Z,36.96
2018-11-14T16:21:19.224Z,36.86
2018-11-14T16:22:19.256Z,36.38
2018-11-14T16:24:12.217Z,36.47
2018-11-14T16:25:12.329Z,36.47
2018-11-14T16:27:05.203Z,36.28
2018-11-14T16:28:05.230Z,36.47
2018-11-14T16:29:58.188Z,36.57
2018-11-14T16:30:58.214Z,36.38
2018-11-14T16:32:51.174Z,36.47
2018-11-14T16:33:51.203Z,36.57
2018-11-14T16:35:44.151Z,36.57
2018-11-14T16:36:44.185Z,36.57
2018-11-14T16:38:37.147Z,36.66
2018-11-14T16:39:37.172Z,36.47
2018-11-14T16:41:30.134Z,36.66
2018-11-14T16:42:30.159Z,36.76
2018-11-14T16:44:23.177Z,36.76
2018-11-14T16:45:23.148Z,36.57
2018-11-14T16:47:16.099Z,36.76
2018-11-14T16:48:16.132Z,36.57
2018-11-14T16:50:09.097Z,36.76
2018-11-14T16:51:09.120Z,36.76
2018-11-14T16:53:02.091Z,36.76
2018-11-14T16:54:02.108Z,36.76
2018-11-14T16:55:55.061Z,36.76
2018-11-14T16:56:55.094Z,36.66
2018-11-14T16:58:48.054Z,36.66
2018-11-14T16:59:48.093Z,36.66
2018-11-14T17:01:41.038Z,36.76
2018-11-14T17:02:41.076Z,36.76
2018-11-14T17:04:34.051Z,36.76
2018-11-14T17:05:34.074Z,36.76
2018-11-14T17:07:27.026Z,36.76
2018-11-14T17:08:27.059Z,36.66
2018-11-14T17:10:20.022Z,36.66
2018-11-14T17:11:20.047Z,36.76
2018-11-14T17:13:13.009Z,36.76
2018-11-14T17:14:13.095Z,36.86
2018-11-14T17:16:05.984Z,36.66
2018-11-14T17:17:06.018Z,36.76
2018-11-14T17:18:58.977Z,36.86
2018-11-14T17:19:59.007Z,36.66
2018-11-14T17:21:51.956Z,36.76
2018-11-14T17:22:51.990Z,36.86
2018-11-14T17:24:44.948Z,36.66
2018-11-14T17:25:44.994Z,36.66
2018-11-14T17:27:37.931Z,36.57
2018-11-14T17:28:37.965Z,36.66
2018-11-14T17:30:30.921Z,36.76
2018-11-14T17:31:30.946Z,36.76
2018-11-14T17:33:23.940Z,36.57
2018-11-14T17:34:23.931Z,36.57
2018-11-14T17:36:16.886Z,36.47
2018-11-14T17:37:16.917Z,36.46
2018-11-14T17:39:09.877Z,36.46
2018-11-14T17:40:09.904Z,36.66
2018-11-14T17:42:03.041Z,36.46
2018-11-14T17:43:02.960Z,36.96
2018-11-14T17:44:55.848Z,36.96
2018-11-14T17:45:55.873Z,36.86
2018-11-14T17:47:48.824Z,36.57
2018-11-14T17:48:48.861Z,36.94
2018-11-14T17:50:41.879Z,36.36
2018-11-14T17:51:41.850Z,36.36
2018-11-14T17:53:34.818Z,36.38
2018-11-14T17:54:34.826Z,36.36
2018-11-14T17:56:27.776Z,36.46
2018-11-14T17:57:27.810Z,36.57
2018-11-14T17:59:20.778Z,36.55
2018-11-14T18:00:20.802Z,36.76
2018-11-14T18:02:14.763Z,36.76
2018-11-14T18:03:14.916Z,36.66
2018-11-14T18:05:08.745Z,36.76
2018-11-14T18:06:08.770Z,36.66
2018-11-14T18:08:01.722Z,36.76
2018-11-14T18:09:01.754Z,36.76
2018-11-14T18:10:54.714Z,36.57
2018-11-14T18:11:54.738Z,36.08
2018-11-14T18:13:47.735Z,35.10
2018-11-14T18:14:47.781Z,35.97
2018-11-14T18:16:40.685Z,36.08
2018-11-14T18:17:40.713Z,35.99
2018-11-14T18:19:33.680Z,36.47
2018-11-14T18:20:33.704Z,35.99
2018-11-14T18:22:26.653Z,36.28
2018-11-14T18:23:26.701Z,36.38
2018-11-14T18:25:19.648Z,35.89
2018-11-14T18:26:19.672Z,36.28
2018-11-14T18:28:12.623Z,36.08
2018-11-14T18:29:12.657Z,35.89
2018-11-14T18:31:05.615Z,36.08
2018-11-14T18:32:05.640Z,36.18
2018-11-14T18:33:58.597Z,36.18